sensor_id;sensor_type;location;lat;lon;timestamp;P1;durP1;ratioP1;P2;durP2;ratioP2
787;SDS011;16074;42.708;23.312;2023-05-29T00:02:24;7.20;;;6.50;;
787;SDS011;16074;42.708;23.312;2023-05-29T00:04:53;7.63;;;6.93;;
787;SDS011;16074;42.708;23.312;2023-05-29T00:07:22;8.60;;;7.80;;
787;SDS011;16074;42.708;23.312;2023-05-29T00:09:51;8.03;;;7.43;;
787;SDS011;16074;42.708;23.312;2023-05-29T00:12:19;7.57;;;6.93;;
787;SDS011;16074;42.708;23.312;2023-05-29T00:14:48;8.20;;;7.33;;
787;SDS011;16074;42.708;23.312;2023-05-29T00:17:17;8.40;;;7.70;;
787;SDS011;16074;42.708;23.312;2023-05-29T00:19:45;7.37;;;6.73;;
787;SDS011;16074;42.708;23.312;2023-05-29T00:22:13;8.23;;;7.47;;
787;SDS011;16074;42.708;23.312;2023-05-29T00:24:43;6.93;;;6.37;;
787;SDS011;16074;42.708;23.312;2023-05-29T00:27:11;8.20;;;7.60;;
787;SDS011;16074;42.708;23.312;2023-05-29T00:29:40;6.97;;;6.50;;
787;SDS011;16074;42.708;23.312;2023-05-29T00:32:09;7.60;;;7.00;;
787;SDS011;16074;42.708;23.312;2023-05-29T00:34:37;10.73;;;8.33;;
787;SDS011;16074;42.708;23.312;2023-05-29T00:37:05;7.30;;;6.70;;
787;SDS011;16074;42.708;23.312;2023-05-29T00:39:35;8.50;;;7.70;;
787;SDS011;16074;42.708;23.312;2023-05-29T00:42:05;9.40;;;7.80;;
787;SDS011;16074;42.708;23.312;2023-05-29T00:44:34;7.97;;;7.30;;
787;SDS011;16074;42.708;23.312;2023-05-29T00:47:03;8.77;;;7.97;;
787;SDS011;16074;42.708;23.312;2023-05-29T00:49:31;8.50;;;7.77;;
787;SDS011;16074;42.708;23.312;2023-05-29T00:52:02;8.77;;;7.87;;
787;SDS011;16074;42.708;23.312;2023-05-29T00:54:33;8.30;;;7.20;;
787;SDS011;16074;42.708;23.312;2023-05-29T00:57:03;9.47;;;8.47;;
787;SDS011;16074;42.708;23.312;2023-05-29T00:59:34;8.80;;;8.00;;
787;SDS011;16074;42.708;23.312;2023-05-29T01:02:03;8.90;;;8.10;;
787;SDS011;16074;42.708;23.312;2023-05-29T01:04:32;9.60;;;8.73;;
787;SDS011;16074;42.708;23.312;2023-05-29T01:07:02;10.93;;;9.70;;
787;SDS011;16074;42.708;23.312;2023-05-29T01:09:31;10.27;;;9.33;;
787;SDS011;16074;42.708;23.312;2023-05-29T01:12:03;9.17;;;8.23;;
787;SDS011;16074;42.708;23.312;2023-05-29T01:14:45;9.90;;;9.02;;
787;SDS011;16074;42.708;23.312;2023-05-29T01:17:31;10.40;;;9.50;;
787;SDS011;16074;42.708;23.312;2023-05-29T01:20:07;10.10;;;9.10;;
787;SDS011;16074;42.708;23.312;2023-05-29T01:22:50;9.90;;;9.10;;
787;SDS011;16074;42.708;23.312;2023-05-29T01:25:36;9.80;;;8.20;;
787;SDS011;16074;42.708;23.312;2023-05-29T01:28:20;10.00;;;9.20;;
787;SDS011;16074;42.708;23.312;2023-05-29T01:30:49;10.00;;;9.10;;
787;SDS011;16074;42.708;23.312;2023-05-29T01:33:18;12.13;;;10.82;;
787;SDS011;16074;42.708;23.312;2023-05-29T01:35:50;11.60;;;10.38;;
787;SDS011;16074;42.708;23.312;2023-05-29T01:38:18;15.23;;;10.63;;
787;SDS011;16074;42.708;23.312;2023-05-29T01:40:46;10.82;;;8.88;;
787;SDS011;16074;42.708;23.312;2023-05-29T01:43:16;10.13;;;9.23;;
787;SDS011;16074;42.708;23.312;2023-05-29T01:45:46;11.13;;;10.13;;
787;SDS011;16074;42.708;23.312;2023-05-29T01:48:15;11.57;;;9.38;;
787;SDS011;16074;42.708;23.312;2023-05-29T01:50:43;9.95;;;9.05;;
787;SDS011;16074;42.708;23.312;2023-05-29T01:53:14;9.75;;;8.85;;
787;SDS011;16074;42.708;23.312;2023-05-29T01:55:43;10.60;;;9.60;;
787;SDS011;16074;42.708;23.312;2023-05-29T01:58:11;11.05;;;9.90;;
787;SDS011;16074;42.708;23.312;2023-05-29T02:00:42;11.90;;;10.90;;
787;SDS011;16074;42.708;23.312;2023-05-29T02:03:12;12.48;;;11.23;;
787;SDS011;16074;42.708;23.312;2023-05-29T02:05:41;12.38;;;10.70;;
787;SDS011;16074;42.708;23.312;2023-05-29T02:08:09;11.38;;;10.27;;
787;SDS011;16074;42.708;23.312;2023-05-29T02:10:38;14.15;;;9.82;;
787;SDS011;16074;42.708;23.312;2023-05-29T02:13:07;11.68;;;10.27;;
787;SDS011;16074;42.708;23.312;2023-05-29T02:15:35;12.50;;;10.18;;
787;SDS011;16074;42.708;23.312;2023-05-29T02:18:04;12.85;;;11.02;;
787;SDS011;16074;42.708;23.312;2023-05-29T02:20:34;10.90;;;10.00;;
787;SDS011;16074;42.708;23.312;2023-05-29T02:23:02;11.63;;;10.43;;
787;SDS011;16074;42.708;23.312;2023-05-29T02:25:30;12.80;;;11.57;;
787;SDS011;16074;42.708;23.312;2023-05-29T02:27:59;12.27;;;11.20;;
787;SDS011;16074;42.708;23.312;2023-05-29T02:30:27;12.10;;;11.00;;
787;SDS011;16074;42.708;23.312;2023-05-29T02:32:55;10.82;;;9.85;;
787;SDS011;16074;42.708;23.312;2023-05-29T02:35:24;11.77;;;10.57;;
787;SDS011;16074;42.708;23.312;2023-05-29T02:37:54;12.07;;;10.88;;
787;SDS011;16074;42.708;23.312;2023-05-29T02:40:22;11.15;;;10.10;;
787;SDS011;16074;42.708;23.312;2023-05-29T02:42:50;11.55;;;10.38;;
787;SDS011;16074;42.708;23.312;2023-05-29T02:45:19;11.05;;;9.95;;
787;SDS011;16074;42.708;23.312;2023-05-29T02:47:47;11.40;;;10.27;;
787;SDS011;16074;42.708;23.312;2023-05-29T02:50:16;11.13;;;10.13;;
787;SDS011;16074;42.708;23.312;2023-05-29T02:52:45;12.10;;;10.75;;
787;SDS011;16074;42.708;23.312;2023-05-29T02:55:15;12.40;;;11.10;;
787;SDS011;16074;42.708;23.312;2023-05-29T02:57:43;12.55;;;11.10;;
787;SDS011;16074;42.708;23.312;2023-05-29T03:00:12;12.10;;;10.75;;
787;SDS011;16074;42.708;23.312;2023-05-29T03:02:40;13.23;;;10.95;;
787;SDS011;16074;42.708;23.312;2023-05-29T03:05:10;12.85;;;11.55;;
787;SDS011;16074;42.708;23.312;2023-05-29T03:07:39;12.82;;;11.52;;
787;SDS011;16074;42.708;23.312;2023-05-29T03:10:08;13.75;;;11.52;;
787;SDS011;16074;42.708;23.312;2023-05-29T03:12:38;13.80;;;12.35;;
787;SDS011;16074;42.708;23.312;2023-05-29T03:15:08;13.52;;;10.85;;
787;SDS011;16074;42.708;23.312;2023-05-29T03:17:38;13.40;;;12.10;;
787;SDS011;16074;42.708;23.312;2023-05-29T03:20:11;16.20;;;13.85;;
787;SDS011;16074;42.708;23.312;2023-05-29T03:22:40;14.43;;;13.02;;
787;SDS011;16074;42.708;23.312;2023-05-29T03:25:09;17.40;;;12.50;;
787;SDS011;16074;42.708;23.312;2023-05-29T03:27:39;14.25;;;12.75;;
787;SDS011;16074;42.708;23.312;2023-05-29T03:30:12;15.00;;;13.07;;
787;SDS011;16074;42.708;23.312;2023-05-29T03:32:40;12.75;;;11.32;;
787;SDS011;16074;42.708;23.312;2023-05-29T03:35:09;13.40;;;12.00;;
787;SDS011;16074;42.708;23.312;2023-05-29T03:37:40;12.52;;;11.32;;
787;SDS011;16074;42.708;23.312;2023-05-29T03:40:09;14.00;;;12.40;;
787;SDS011;16074;42.708;23.312;2023-05-29T03:42:40;12.65;;;11.07;;
787;SDS011;16074;42.708;23.312;2023-05-29T03:45:09;15.77;;;13.65;;
787;SDS011;16074;42.708;23.312;2023-05-29T03:47:40;17.30;;;15.57;;
787;SDS011;16074;42.708;23.312;2023-05-29T03:50:09;17.93;;;12.40;;
787;SDS011;16074;42.708;23.312;2023-05-29T03:52:38;14.65;;;13.15;;
787;SDS011;16074;42.708;23.312;2023-05-29T03:55:08;15.05;;;13.55;;
787;SDS011;16074;42.708;23.312;2023-05-29T03:57:41;18.13;;;14.50;;
787;SDS011;16074;42.708;23.312;2023-05-29T04:00:12;15.43;;;12.90;;
787;SDS011;16074;42.708;23.312;2023-05-29T04:02:45;13.30;;;12.10;;
787;SDS011;16074;42.708;23.312;2023-05-29T04:05:13;17.27;;;14.40;;
787;SDS011;16074;42.708;23.312;2023-05-29T04:07:42;16.43;;;14.10;;
787;SDS011;16074;42.708;23.312;2023-05-29T04:10:10;17.20;;;14.03;;
787;SDS011;16074;42.708;23.312;2023-05-29T04:12:38;15.53;;;14.00;;
787;SDS011;16074;42.708;23.312;2023-05-29T04:15:08;16.60;;;14.87;;
787;SDS011;16074;42.708;23.312;2023-05-29T04:17:37;19.93;;;15.50;;
787;SDS011;16074;42.708;23.312;2023-05-29T04:20:06;16.07;;;14.50;;
787;SDS011;16074;42.708;23.312;2023-05-29T04:22:36;15.87;;;14.20;;
787;SDS011;16074;42.708;23.312;2023-05-29T04:25:05;15.63;;;13.93;;
787;SDS011;16074;42.708;23.312;2023-05-29T04:27:34;23.90;;;13.60;;
787;SDS011;16074;42.708;23.312;2023-05-29T04:30:07;14.73;;;12.30;;
787;SDS011;16074;42.708;23.312;2023-05-29T04:32:42;13.60;;;11.37;;
787;SDS011;16074;42.708;23.312;2023-05-29T04:35:12;15.60;;;12.30;;
787;SDS011;16074;42.708;23.312;2023-05-29T04:37:55;18.20;;;13.30;;
787;SDS011;16074;42.708;23.312;2023-05-29T04:40:28;15.03;;;13.73;;
787;SDS011;16074;42.708;23.312;2023-05-29T04:42:58;13.77;;;12.50;;
787;SDS011;16074;42.708;23.312;2023-05-29T04:45:40;15.33;;;12.83;;
787;SDS011;16074;42.708;23.312;2023-05-29T04:48:09;15.17;;;13.70;;
787;SDS011;16074;42.708;23.312;2023-05-29T04:50:37;14.60;;;13.03;;
787;SDS011;16074;42.708;23.312;2023-05-29T04:53:06;17.63;;;12.40;;
787;SDS011;16074;42.708;23.312;2023-05-29T04:55:34;14.30;;;12.80;;
787;SDS011;16074;42.708;23.312;2023-05-29T04:58:02;14.80;;;11.97;;
787;SDS011;16074;42.708;23.312;2023-05-29T05:00:31;18.97;;;13.50;;
787;SDS011;16074;42.708;23.312;2023-05-29T05:03:00;20.40;;;14.40;;
787;SDS011;16074;42.708;23.312;2023-05-29T05:05:29;15.77;;;12.23;;
787;SDS011;16074;42.708;23.312;2023-05-29T05:07:59;15.60;;;11.90;;
787;SDS011;16074;42.708;23.312;2023-05-29T05:10:28;19.30;;;13.67;;
787;SDS011;16074;42.708;23.312;2023-05-29T05:12:56;20.10;;;14.20;;
787;SDS011;16074;42.708;23.312;2023-05-29T05:15:25;15.57;;;12.87;;
787;SDS011;16074;42.708;23.312;2023-05-29T05:17:54;18.93;;;12.00;;
787;SDS011;16074;42.708;23.312;2023-05-29T05:20:24;13.33;;;12.03;;
787;SDS011;16074;42.708;23.312;2023-05-29T05:22:58;14.03;;;12.13;;
787;SDS011;16074;42.708;23.312;2023-05-29T05:25:27;12.43;;;11.43;;
787;SDS011;16074;42.708;23.312;2023-05-29T05:27:56;13.47;;;11.67;;
787;SDS011;16074;42.708;23.312;2023-05-29T05:30:26;17.90;;;13.53;;
787;SDS011;16074;42.708;23.312;2023-05-29T05:32:54;14.70;;;11.13;;
787;SDS011;16074;42.708;23.312;2023-05-29T05:35:24;16.53;;;11.00;;
787;SDS011;16074;42.708;23.312;2023-05-29T05:37:53;15.50;;;12.30;;
787;SDS011;16074;42.708;23.312;2023-05-29T05:40:25;16.50;;;12.57;;
787;SDS011;16074;42.708;23.312;2023-05-29T05:42:59;16.13;;;12.20;;
787;SDS011;16074;42.708;23.312;2023-05-29T05:46:00;20.33;;;13.00;;
787;SDS011;16074;42.708;23.312;2023-05-29T05:48:30;13.47;;;11.90;;
787;SDS011;16074;42.708;23.312;2023-05-29T05:50:59;12.60;;;11.30;;
787;SDS011;16074;42.708;23.312;2023-05-29T05:53:28;11.80;;;10.43;;
787;SDS011;16074;42.708;23.312;2023-05-29T05:55:56;13.10;;;10.17;;
787;SDS011;16074;42.708;23.312;2023-05-29T05:58:25;11.33;;;9.60;;
787;SDS011;16074;42.708;23.312;2023-05-29T06:00:55;12.40;;;10.13;;
787;SDS011;16074;42.708;23.312;2023-05-29T06:03:25;11.27;;;9.30;;
787;SDS011;16074;42.708;23.312;2023-05-29T06:06:02;10.20;;;9.20;;
787;SDS011;16074;42.708;23.312;2023-05-29T06:08:31;10.43;;;8.93;;
787;SDS011;16074;42.708;23.312;2023-05-29T06:10:59;9.40;;;8.20;;
787;SDS011;16074;42.708;23.312;2023-05-29T06:13:28;7.70;;;7.00;;
787;SDS011;16074;42.708;23.312;2023-05-29T06:16:04;9.70;;;8.90;;
787;SDS011;16074;42.708;23.312;2023-05-29T06:18:33;8.13;;;7.20;;
787;SDS011;16074;42.708;23.312;2023-05-29T06:21:03;11.97;;;7.40;;
787;SDS011;16074;42.708;23.312;2023-05-29T06:23:34;6.87;;;6.27;;
787;SDS011;16074;42.708;23.312;2023-05-29T06:26:03;7.90;;;7.20;;
787;SDS011;16074;42.708;23.312;2023-05-29T06:28:32;10.50;;;8.00;;
787;SDS011;16074;42.708;23.312;2023-05-29T06:31:01;7.00;;;6.30;;
787;SDS011;16074;42.708;23.312;2023-05-29T06:33:29;7.37;;;6.80;;
787;SDS011;16074;42.708;23.312;2023-05-29T06:35:57;7.90;;;7.10;;
787;SDS011;16074;42.708;23.312;2023-05-29T06:38:30;7.93;;;7.33;;
787;SDS011;16074;42.708;23.312;2023-05-29T06:40:59;7.07;;;6.47;;
787;SDS011;16074;42.708;23.312;2023-05-29T06:43:28;7.33;;;6.50;;
787;SDS011;16074;42.708;23.312;2023-05-29T06:45:57;12.90;;;7.20;;
787;SDS011;16074;42.708;23.312;2023-05-29T06:48:26;8.43;;;7.60;;
787;SDS011;16074;42.708;23.312;2023-05-29T06:50:57;7.70;;;7.00;;
787;SDS011;16074;42.708;23.312;2023-05-29T06:53:50;7.87;;;7.00;;
787;SDS011;16074;42.708;23.312;2023-05-29T06:56:18;7.37;;;6.63;;
787;SDS011;16074;42.708;23.312;2023-05-29T06:58:47;6.87;;;6.27;;
787;SDS011;16074;42.708;23.312;2023-05-29T07:01:16;7.90;;;7.20;;
787;SDS011;16074;42.708;23.312;2023-05-29T07:04:01;8.00;;;7.33;;
787;SDS011;16074;42.708;23.312;2023-05-29T07:06:30;6.27;;;5.50;;
787;SDS011;16074;42.708;23.312;2023-05-29T07:09:01;6.57;;;6.00;;
787;SDS011;16074;42.708;23.312;2023-05-29T07:11:30;5.97;;;5.37;;
787;SDS011;16074;42.708;23.312;2023-05-29T07:13:58;7.93;;;5.03;;
787;SDS011;16074;42.708;23.312;2023-05-29T07:16:27;5.70;;;5.30;;
787;SDS011;16074;42.708;23.312;2023-05-29T07:18:59;5.27;;;4.97;;
787;SDS011;16074;42.708;23.312;2023-05-29T07:21:30;5.60;;;5.23;;
787;SDS011;16074;42.708;23.312;2023-05-29T07:23:59;5.93;;;4.80;;
787;SDS011;16074;42.708;23.312;2023-05-29T07:26:29;3.37;;;3.17;;
787;SDS011;16074;42.708;23.312;2023-05-29T07:28:57;5.63;;;4.20;;
787;SDS011;16074;42.708;23.312;2023-05-29T07:31:27;4.40;;;3.80;;
787;SDS011;16074;42.708;23.312;2023-05-29T07:33:56;4.10;;;3.83;;
787;SDS011;16074;42.708;23.312;2023-05-29T07:36:28;4.83;;;4.47;;
787;SDS011;16074;42.708;23.312;2023-05-29T07:38:59;5.20;;;4.47;;
787;SDS011;16074;42.708;23.312;2023-05-29T07:41:30;4.03;;;3.63;;
787;SDS011;16074;42.708;23.312;2023-05-29T07:43:59;5.90;;;3.33;;
787;SDS011;16074;42.708;23.312;2023-05-29T07:46:29;3.67;;;3.37;;
787;SDS011;16074;42.708;23.312;2023-05-29T07:49:17;3.00;;;2.80;;
787;SDS011;16074;42.708;23.312;2023-05-29T07:51:45;3.23;;;2.93;;
787;SDS011;16074;42.708;23.312;2023-05-29T07:54:14;3.57;;;3.33;;
787;SDS011;16074;42.708;23.312;2023-05-29T07:56:46;3.60;;;3.40;;
787;SDS011;16074;42.708;23.312;2023-05-29T07:59:16;5.07;;;3.80;;
787;SDS011;16074;42.708;23.312;2023-05-29T08:01:45;4.77;;;4.10;;
787;SDS011;16074;42.708;23.312;2023-05-29T08:04:33;4.23;;;3.93;;
787;SDS011;16074;42.708;23.312;2023-05-29T08:07:02;3.30;;;3.20;;
787;SDS011;16074;42.708;23.312;2023-05-29T08:09:31;3.33;;;2.80;;
787;SDS011;16074;42.708;23.312;2023-05-29T08:12:01;4.40;;;4.10;;
787;SDS011;16074;42.708;23.312;2023-05-29T08:14:30;5.00;;;4.17;;
787;SDS011;16074;42.708;23.312;2023-05-29T08:17:01;4.17;;;3.77;;
787;SDS011;16074;42.708;23.312;2023-05-29T08:19:29;4.53;;;4.03;;
787;SDS011;16074;42.708;23.312;2023-05-29T08:21:57;4.27;;;4.07;;
787;SDS011;16074;42.708;23.312;2023-05-29T08:24:25;5.30;;;5.00;;
787;SDS011;16074;42.708;23.312;2023-05-29T08:26:54;4.03;;;3.73;;
787;SDS011;16074;42.708;23.312;2023-05-29T08:29:24;4.17;;;3.90;;
787;SDS011;16074;42.708;23.312;2023-05-29T08:31:52;3.57;;;3.27;;
787;SDS011;16074;42.708;23.312;2023-05-29T08:34:20;4.57;;;4.23;;
787;SDS011;16074;42.708;23.312;2023-05-29T08:36:51;4.47;;;4.27;;
787;SDS011;16074;42.708;23.312;2023-05-29T08:39:21;4.57;;;4.17;;
787;SDS011;16074;42.708;23.312;2023-05-29T08:41:51;4.40;;;4.00;;
787;SDS011;16074;42.708;23.312;2023-05-29T08:44:29;4.27;;;3.87;;
787;SDS011;16074;42.708;23.312;2023-05-29T08:47:00;4.20;;;3.70;;
787;SDS011;16074;42.708;23.312;2023-05-29T08:49:33;4.00;;;3.80;;
787;SDS011;16074;42.708;23.312;2023-05-29T08:52:09;5.20;;;4.70;;
787;SDS011;16074;42.708;23.312;2023-05-29T08:54:41;4.67;;;4.37;;
787;SDS011;16074;42.708;23.312;2023-05-29T08:57:11;4.40;;;4.10;;
787;SDS011;16074;42.708;23.312;2023-05-29T08:59:43;3.50;;;3.30;;
787;SDS011;16074;42.708;23.312;2023-05-29T09:02:12;4.03;;;3.73;;
787;SDS011;16074;42.708;23.312;2023-05-29T09:04:42;5.07;;;4.67;;
787;SDS011;16074;42.708;23.312;2023-05-29T09:07:14;3.83;;;3.33;;
787;SDS011;16074;42.708;23.312;2023-05-29T09:09:44;5.27;;;3.87;;
787;SDS011;16074;42.708;23.312;2023-05-29T09:12:13;4.93;;;4.27;;
787;SDS011;16074;42.708;23.312;2023-05-29T09:14:44;3.93;;;3.70;;
787;SDS011;16074;42.708;23.312;2023-05-29T09:17:13;4.20;;;4.00;;
787;SDS011;16074;42.708;23.312;2023-05-29T09:19:42;3.93;;;3.73;;
787;SDS011;16074;42.708;23.312;2023-05-29T09:22:13;5.40;;;5.00;;
787;SDS011;16074;42.708;23.312;2023-05-29T09:24:45;5.10;;;4.60;;
787;SDS011;16074;42.708;23.312;2023-05-29T09:27:15;4.63;;;4.40;;
787;SDS011;16074;42.708;23.312;2023-05-29T09:29:46;4.23;;;4.03;;
787;SDS011;16074;42.708;23.312;2023-05-29T09:32:15;4.73;;;4.43;;
787;SDS011;16074;42.708;23.312;2023-05-29T09:34:44;4.83;;;4.53;;
787;SDS011;16074;42.708;23.312;2023-05-29T09:37:13;4.33;;;4.03;;
787;SDS011;16074;42.708;23.312;2023-05-29T09:39:45;5.03;;;4.53;;
787;SDS011;16074;42.708;23.312;2023-05-29T09:42:14;4.83;;;4.53;;
787;SDS011;16074;42.708;23.312;2023-05-29T09:44:45;4.83;;;4.47;;
787;SDS011;16074;42.708;23.312;2023-05-29T09:47:18;4.63;;;4.30;;
787;SDS011;16074;42.708;23.312;2023-05-29T09:49:47;5.20;;;4.90;;
787;SDS011;16074;42.708;23.312;2023-05-29T09:52:20;4.87;;;4.43;;
787;SDS011;16074;42.708;23.312;2023-05-29T09:54:50;4.53;;;4.20;;
787;SDS011;16074;42.708;23.312;2023-05-29T09:57:19;4.50;;;4.30;;
787;SDS011;16074;42.708;23.312;2023-05-29T09:59:51;4.90;;;4.50;;
787;SDS011;16074;42.708;23.312;2023-05-29T10:02:20;4.23;;;4.00;;
787;SDS011;16074;42.708;23.312;2023-05-29T10:04:49;4.33;;;3.87;;
787;SDS011;16074;42.708;23.312;2023-05-29T10:07:20;4.93;;;4.50;;
787;SDS011;16074;42.708;23.312;2023-05-29T10:09:54;5.20;;;4.90;;
787;SDS011;16074;42.708;23.312;2023-05-29T10:12:30;5.77;;;5.30;;
787;SDS011;16074;42.708;23.312;2023-05-29T10:15:02;5.30;;;5.00;;
787;SDS011;16074;42.708;23.312;2023-05-29T10:17:39;5.90;;;5.13;;
787;SDS011;16074;42.708;23.312;2023-05-29T10:20:17;4.70;;;4.20;;
787;SDS011;16074;42.708;23.312;2023-05-29T10:22:50;4.27;;;4.07;;
787;SDS011;16074;42.708;23.312;2023-05-29T10:25:20;4.63;;;4.33;;
787;SDS011;16074;42.708;23.312;2023-05-29T10:27:48;5.10;;;4.70;;
787;SDS011;16074;42.708;23.312;2023-05-29T10:30:27;4.53;;;4.23;;
787;SDS011;16074;42.708;23.312;2023-05-29T10:33:07;5.10;;;4.80;;
787;SDS011;16074;42.708;23.312;2023-05-29T10:35:43;4.13;;;3.93;;
787;SDS011;16074;42.708;23.312;2023-05-29T10:38:15;5.13;;;4.73;;
787;SDS011;16074;42.708;23.312;2023-05-29T10:40:45;4.20;;;3.93;;
787;SDS011;16074;42.708;23.312;2023-05-29T10:46:02;5.73;;;5.23;;
787;SDS011;16074;42.708;23.312;2023-05-29T10:48:38;4.80;;;4.47;;
787;SDS011;16074;42.708;23.312;2023-05-29T10:51:08;4.90;;;4.60;;
787;SDS011;16074;42.708;23.312;2023-05-29T10:53:51;5.10;;;4.77;;
787;SDS011;16074;42.708;23.312;2023-05-29T10:56:21;4.57;;;4.27;;
787;SDS011;16074;42.708;23.312;2023-05-29T10:58:52;4.37;;;4.17;;
787;SDS011;16074;42.708;23.312;2023-05-29T11:01:23;4.10;;;3.83;;
787;SDS011;16074;42.708;23.312;2023-05-29T11:03:53;5.83;;;5.53;;
787;SDS011;16074;42.708;23.312;2023-05-29T11:06:27;5.00;;;4.60;;
787;SDS011;16074;42.708;23.312;2023-05-29T11:09:03;5.80;;;4.90;;
787;SDS011;16074;42.708;23.312;2023-05-29T11:11:34;5.20;;;4.90;;
787;SDS011;16074;42.708;23.312;2023-05-29T11:14:05;4.67;;;4.40;;
787;SDS011;16074;42.708;23.312;2023-05-29T11:16:38;4.53;;;4.33;;
787;SDS011;16074;42.708;23.312;2023-05-29T11:19:07;4.60;;;4.40;;
787;SDS011;16074;42.708;23.312;2023-05-29T11:21:46;4.83;;;4.53;;
787;SDS011;16074;42.708;23.312;2023-05-29T11:24:24;4.83;;;4.50;;
787;SDS011;16074;42.708;23.312;2023-05-29T11:26:54;5.43;;;4.93;;
787;SDS011;16074;42.708;23.312;2023-05-29T11:29:27;4.30;;;4.10;;
787;SDS011;16074;42.708;23.312;2023-05-29T11:32:01;5.87;;;5.10;;
787;SDS011;16074;42.708;23.312;2023-05-29T11:34:31;4.50;;;4.10;;
787;SDS011;16074;42.708;23.312;2023-05-29T11:37:01;4.70;;;4.40;;
787;SDS011;16074;42.708;23.312;2023-05-29T11:39:30;4.47;;;4.10;;
787;SDS011;16074;42.708;23.312;2023-05-29T11:42:03;5.30;;;4.80;;
787;SDS011;16074;42.708;23.312;2023-05-29T11:44:33;4.80;;;4.43;;
787;SDS011;16074;42.708;23.312;2023-05-29T11:47:03;4.70;;;4.40;;
787;SDS011;16074;42.708;23.312;2023-05-29T11:49:34;5.30;;;4.50;;
787;SDS011;16074;42.708;23.312;2023-05-29T11:52:07;6.87;;;6.30;;
787;SDS011;16074;42.708;23.312;2023-05-29T11:54:42;6.53;;;6.00;;
787;SDS011;16074;42.708;23.312;2023-05-29T11:57:17;6.60;;;6.20;;
787;SDS011;16074;42.708;23.312;2023-05-29T11:59:46;6.13;;;5.70;;
787;SDS011;16074;42.708;23.312;2023-05-29T12:02:16;5.20;;;4.80;;
787;SDS011;16074;42.708;23.312;2023-05-29T12:04:59;5.73;;;5.33;;
787;SDS011;16074;42.708;23.312;2023-05-29T12:07:28;4.63;;;4.30;;
787;SDS011;16074;42.708;23.312;2023-05-29T12:09:56;4.40;;;3.90;;
787;SDS011;16074;42.708;23.312;2023-05-29T12:12:25;6.90;;;5.33;;
787;SDS011;16074;42.708;23.312;2023-05-29T12:14:56;16.97;;;9.10;;
787;SDS011;16074;42.708;23.312;2023-05-29T12:17:26;15.50;;;9.73;;
787;SDS011;16074;42.708;23.312;2023-05-29T12:19:57;9.30;;;7.70;;
787;SDS011;16074;42.708;23.312;2023-05-29T12:22:32;12.23;;;9.77;;
787;SDS011;16074;42.708;23.312;2023-05-29T12:25:05;11.63;;;8.43;;
787;SDS011;16074;42.708;23.312;2023-05-29T12:27:35;8.20;;;7.40;;
787;SDS011;16074;42.708;23.312;2023-05-29T12:30:08;12.63;;;9.70;;
787;SDS011;16074;42.708;23.312;2023-05-29T12:32:44;8.07;;;7.27;;
787;SDS011;16074;42.708;23.312;2023-05-29T12:35:15;9.83;;;7.73;;
787;SDS011;16074;42.708;23.312;2023-05-29T12:37:45;8.03;;;7.23;;
787;SDS011;16074;42.708;23.312;2023-05-29T12:40:19;8.60;;;6.73;;
787;SDS011;16074;42.708;23.312;2023-05-29T12:42:52;7.57;;;6.83;;
787;SDS011;16074;42.708;23.312;2023-05-29T12:45:23;6.40;;;5.90;;
787;SDS011;16074;42.708;23.312;2023-05-29T12:47:54;11.03;;;6.77;;
787;SDS011;16074;42.708;23.312;2023-05-29T12:50:24;8.13;;;7.43;;
787;SDS011;16074;42.708;23.312;2023-05-29T12:52:57;7.50;;;6.90;;
787;SDS011;16074;42.708;23.312;2023-05-29T12:55:27;7.37;;;6.77;;
787;SDS011;16074;42.708;23.312;2023-05-29T12:57:56;7.80;;;6.97;;
787;SDS011;16074;42.708;23.312;2023-05-29T13:00:24;10.00;;;7.80;;
787;SDS011;16074;42.708;23.312;2023-05-29T13:02:54;9.50;;;7.30;;
787;SDS011;16074;42.708;23.312;2023-05-29T13:05:22;7.03;;;6.40;;
787;SDS011;16074;42.708;23.312;2023-05-29T13:07:51;7.67;;;7.10;;
787;SDS011;16074;42.708;23.312;2023-05-29T13:10:19;7.10;;;6.60;;
787;SDS011;16074;42.708;23.312;2023-05-29T13:12:48;8.63;;;7.83;;
787;SDS011;16074;42.708;23.312;2023-05-29T13:15:21;6.93;;;6.43;;
787;SDS011;16074;42.708;23.312;2023-05-29T13:17:50;7.80;;;7.20;;
787;SDS011;16074;42.708;23.312;2023-05-29T13:20:20;7.10;;;6.60;;
787;SDS011;16074;42.708;23.312;2023-05-29T13:22:49;6.70;;;6.07;;
787;SDS011;16074;42.708;23.312;2023-05-29T13:25:17;7.13;;;6.53;;
787;SDS011;16074;42.708;23.312;2023-05-29T13:27:48;5.17;;;4.87;;
787;SDS011;16074;42.708;23.312;2023-05-29T13:30:16;10.20;;;5.77;;
787;SDS011;16074;42.708;23.312;2023-05-29T13:32:45;4.00;;;3.80;;
787;SDS011;16074;42.708;23.312;2023-05-29T13:35:13;3.97;;;3.53;;
787;SDS011;16074;42.708;23.312;2023-05-29T13:37:43;2.80;;;2.60;;
787;SDS011;16074;42.708;23.312;2023-05-29T13:40:12;2.60;;;2.47;;
787;SDS011;16074;42.708;23.312;2023-05-29T13:42:40;4.50;;;2.67;;
787;SDS011;16074;42.708;23.312;2023-05-29T13:45:09;2.87;;;2.70;;
787;SDS011;16074;42.708;23.312;2023-05-29T13:47:38;3.13;;;2.80;;
787;SDS011;16074;42.708;23.312;2023-05-29T13:50:07;3.10;;;2.80;;
787;SDS011;16074;42.708;23.312;2023-05-29T13:52:36;6.20;;;2.90;;
787;SDS011;16074;42.708;23.312;2023-05-29T13:55:06;3.43;;;2.53;;
787;SDS011;16074;42.708;23.312;2023-05-29T13:57:36;7.47;;;3.57;;
787;SDS011;16074;42.708;23.312;2023-05-29T14:00:06;2.87;;;2.53;;
787;SDS011;16074;42.708;23.312;2023-05-29T14:02:36;3.30;;;3.10;;
787;SDS011;16074;42.708;23.312;2023-05-29T14:05:05;2.67;;;2.57;;
787;SDS011;16074;42.708;23.312;2023-05-29T14:07:34;4.00;;;2.57;;
787;SDS011;16074;42.708;23.312;2023-05-29T14:10:02;2.20;;;2.10;;
787;SDS011;16074;42.708;23.312;2023-05-29T14:12:32;3.20;;;2.90;;
787;SDS011;16074;42.708;23.312;2023-05-29T14:15:01;2.80;;;2.70;;
787;SDS011;16074;42.708;23.312;2023-05-29T14:17:30;2.30;;;2.10;;
787;SDS011;16074;42.708;23.312;2023-05-29T14:19:59;1.90;;;1.83;;
787;SDS011;16074;42.708;23.312;2023-05-29T14:22:31;2.43;;;2.20;;
787;SDS011;16074;42.708;23.312;2023-05-29T14:25:00;2.97;;;2.77;;
787;SDS011;16074;42.708;23.312;2023-05-29T14:27:30;2.70;;;2.60;;
787;SDS011;16074;42.708;23.312;2023-05-29T14:30:00;2.40;;;2.27;;
787;SDS011;16074;42.708;23.312;2023-05-29T14:32:30;2.93;;;2.73;;
787;SDS011;16074;42.708;23.312;2023-05-29T14:34:59;2.10;;;2.00;;
787;SDS011;16074;42.708;23.312;2023-05-29T14:37:28;3.50;;;1.93;;
787;SDS011;16074;42.708;23.312;2023-05-29T14:39:57;2.23;;;2.13;;
787;SDS011;16074;42.708;23.312;2023-05-29T14:42:25;2.27;;;2.10;;
787;SDS011;16074;42.708;23.312;2023-05-29T14:44:55;2.97;;;2.67;;
787;SDS011;16074;42.708;23.312;2023-05-29T14:47:24;3.20;;;3.00;;
787;SDS011;16074;42.708;23.312;2023-05-29T14:49:52;3.43;;;3.13;;
787;SDS011;16074;42.708;23.312;2023-05-29T14:52:20;3.20;;;3.00;;
787;SDS011;16074;42.708;23.312;2023-05-29T14:54:48;2.30;;;2.20;;
787;SDS011;16074;42.708;23.312;2023-05-29T14:57:17;2.70;;;2.60;;
787;SDS011;16074;42.708;23.312;2023-05-29T14:59:45;3.97;;;3.07;;
787;SDS011;16074;42.708;23.312;2023-05-29T15:02:15;3.73;;;3.37;;
787;SDS011;16074;42.708;23.312;2023-05-29T15:04:44;3.50;;;3.20;;
787;SDS011;16074;42.708;23.312;2023-05-29T15:07:12;3.13;;;2.87;;
787;SDS011;16074;42.708;23.312;2023-05-29T15:09:40;2.80;;;2.60;;
787;SDS011;16074;42.708;23.312;2023-05-29T15:12:09;2.93;;;2.73;;
787;SDS011;16074;42.708;23.312;2023-05-29T15:14:37;2.80;;;2.60;;
787;SDS011;16074;42.708;23.312;2023-05-29T15:17:06;4.27;;;2.53;;